Time;durP1;ratioP1;P1;durP2;ratioP2;P2;SDS_P1;SDS_P2;PMS_P1;PMS_P2;Temp;Humidity;BMP_temperature;BMP_pressure;BME280_temperature;BME280_humidity;BME280_pressure;Samples;Min_cycle;Max_cycle;Signal;HPM_P1;HPM_P2
2021/06/26 00:02:04;;;;;;;;;3.00;3.00;;;;;19.58;100.00;101528.75;4918747;28;45413;-72
2021/06/26 00:04:30;;;;;;;;;4.00;4.00;;;;;19.57;100.00;101528.81;4917690;28;45479;-72
2021/06/26 00:06:55;;;;;;;;;5.75;5.00;;;;;19.48;100.00;101514.13;4918417;28;45357;-72
2021/06/26 00:09:20;;;;;;;;;5.25;5.00;;;;;19.49;100.00;101514.97;4918729;28;45403;-72
2021/06/26 00:11:46;;;;;;;;;5.00;4.00;;;;;19.58;100.00;101533.19;4919940;28;46050;-73
2021/06/26 00:14:11;;;;;;;;;4.00;3.25;;;;;19.41;100.00;101506.44;4922336;28;45581;-72
2021/06/26 00:16:38;;;;;;;;;4.25;4.00;;;;;19.54;100.00;101534.22;4921690;28;47553;-72
2021/06/26 00:19:03;;;;;;;;;5.00;5.00;;;;;19.52;100.00;101528.97;4920292;28;45607;-72
2021/06/26 00:21:29;;;;;;;;;5.75;4.00;;;;;19.45;100.00;101527.44;4922274;28;45297;-73
2021/06/26 00:23:54;;;;;;;;;6.75;5.75;;;;;19.54;100.00;101540.41;4922331;28;45419;-73
2021/06/26 00:26:19;;;;;;;;;4.50;4.25;;;;;19.51;100.00;101540.47;4921724;28;46812;-72
2021/06/26 00:32:06;;;;;;;;;4.25;4.25;;;;;19.45;100.00;101530.09;4921630;28;45340;-71
2021/06/26 00:34:32;;;;;;;;;6.00;5.75;;;;;19.41;100.00;101525.84;4921732;28;45308;-72
2021/06/26 00:36:57;;;;;;;;;5.00;5.00;;;;;19.43;100.00;101528.44;4921768;28;45349;-72
2021/06/26 00:39:23;;;;;;;;;5.00;5.00;;;;;19.46;100.00;101536.25;4921395;28;45245;-72
2021/06/26 00:41:49;;;;;;;;;5.75;5.75;;;;;19.41;100.00;101527.63;4920367;28;45278;-72
2021/06/26 00:44:14;;;;;;;;;5.50;5.50;;;;;19.27;100.00;101512.28;4921848;28;45393;-72
2021/06/26 00:46:43;;;;;;;;;5.50;5.50;;;;;19.38;100.00;101523.31;4921269;28;46129;-72
2021/06/26 00:49:08;;;;;;;;;5.25;5.00;;;;;19.34;100.00;101524.38;4921541;28;45586;-73
2021/06/26 00:51:34;;;;;;;;;5.00;4.00;;;;;19.36;100.00;101530.47;4921794;28;45475;-72
2021/06/26 00:54:00;;;;;;;;;5.75;4.00;;;;;19.28;100.00;101511.38;4920203;28;45314;-72
2021/06/26 00:56:26;;;;;;;;;7.00;6.50;;;;;19.35;100.00;101527.88;4921510;28;46766;-72
2021/06/26 01:02:14;;;;;;;;;6.25;6.25;;;;;19.35;100.00;101522.59;4921271;28;45344;-72
2021/06/26 01:04:39;;;;;;;;;6.75;6.00;;;;;19.20;100.00;101490.47;4921334;28;45486;-71
2021/06/26 01:07:05;;;;;;;;;6.00;5.75;;;;;19.28;100.00;101498.13;4920907;28;46523;-72
2021/06/26 01:09:31;;;;;;;;;4.25;4.00;;;;;19.36;100.00;101503.97;4921352;28;45555;-72
2021/06/26 01:11:59;;;;;;;;;5.50;4.75;;;;;19.31;100.00;101500.66;4920189;28;45282;-72
2021/06/26 01:14:29;;;;;;;;;6.25;6.25;;;;;19.40;100.00;101507.38;4921557;28;45313;-72
2021/06/26 01:16:54;;;;;;;;;6.25;5.75;;;;;19.40;100.00;101505.59;4921196;28;46658;-72
2021/06/26 01:19:20;;;;;;;;;6.75;6.50;;;;;19.33;100.00;101488.22;4921046;28;45502;-72
2021/06/26 01:21:48;;;;;;;;;9.00;7.50;;;;;19.32;100.00;101481.19;4921155;28;45360;-71
2021/06/26 01:24:14;;;;;;;;;8.25;7.75;;;;;19.33;100.00;101479.41;4920799;28;45348;-72
2021/06/26 01:26:40;;;;;;;;;6.75;6.75;;;;;19.25;100.00;101464.69;4920843;28;45408;-71
2021/06/26 01:32:27;;;;;;;;;9.00;8.25;;;;;19.32;100.00;101481.19;4920761;28;45379;-72
2021/06/26 01:34:52;;;;;;;;;8.75;8.00;;;;;19.30;100.00;101482.19;4920906;28;45314;-73
2021/06/26 01:37:17;;;;;;;;;12.00;10.50;;;;;19.30;100.00;101488.34;4920641;28;46759;-71
2021/06/26 01:39:43;;;;;;;;;9.25;9.00;;;;;19.31;100.00;101490.06;4920955;28;45301;-71
2021/06/26 01:42:08;;;;;;;;;11.00;10.00;;;;;19.24;100.00;101470.91;4920315;28;45395;-71
2021/06/26 01:44:35;;;;;;;;;11.50;10.00;;;;;19.33;100.00;101482.91;4920818;28;45297;-71
2021/06/26 01:47:00;;;;;;;;;11.00;9.25;;;;;19.30;100.00;101471.59;4920676;28;48371;-72
2021/06/26 01:49:26;;;;;;;;;11.75;10.50;;;;;19.33;100.00;101477.63;4935175;28;45259;-72
2021/06/26 01:51:52;;;;;;;;;13.00;11.50;;;;;19.33;100.00;101477.63;4920802;28;45659;-71
2021/06/26 01:54:17;;;;;;;;;12.00;11.00;;;;;19.26;100.00;101468.22;4920962;28;45648;-71
2021/06/26 01:56:43;;;;;;;;;13.75;11.75;;;;;19.29;100.00;101483.97;4919124;28;47134;-71
2021/06/26 02:02:30;;;;;;;;;9.00;9.00;;;;;19.21;100.00;101471.00;4920263;28;45382;-71
2021/06/26 02:04:55;;;;;;;;;8.00;8.00;;;;;19.22;100.00;101472.72;4920539;28;45553;-71
2021/06/26 02:07:21;;;;;;;;;7.75;7.50;;;;;19.26;100.00;101478.78;4920310;28;45320;-71
2021/06/26 02:09:46;;;;;;;;;7.75;7.75;;;;;19.19;100.00;101472.00;4920323;28;45269;-72
2021/06/26 02:12:12;;;;;;;;;9.25;7.00;;;;;19.17;100.00;101460.59;4920627;28;45480;-71
2021/06/26 02:14:37;;;;;;;;;5.50;5.50;;;;;19.24;100.00;101480.66;4918941;28;45496;-71
2021/06/26 02:17:02;;;;;;;;;7.25;7.25;;;;;19.23;100.00;101482.41;4919907;28;47337;-71
2021/06/26 02:19:28;;;;;;;;;10.50;8.25;;;;;19.22;100.00;101485.97;4920136;28;45462;-71
2021/06/26 02:21:53;;;;;;;;;8.00;7.50;;;;;19.17;100.00;101476.47;4920067;28;45678;-71
2021/06/26 02:24:19;;;;;;;;;10.25;8.50;;;;;19.23;100.00;101492.97;4920282;28;45312;-71
2021/06/26 02:26:44;;;;;;;;;10.50;8.75;;;;;19.21;100.00;101488.69;4918769;28;46105;-71
2021/06/26 02:32:31;;;;;;;;;10.00;9.00;;;;;19.14;100.00;101472.16;4919891;28;45527;-71
2021/06/26 02:34:56;;;;;;;;;10.00;7.50;;;;;19.17;100.00;101471.19;4919573;28;45559;-71
2021/06/26 02:37:23;;;;;;;;;8.50;8.25;;;;;19.16;100.00;101466.81;4919685;28;45389;-70
2021/06/26 02:39:48;;;;;;;;;11.00;8.00;;;;;19.17;100.00;101476.47;4919639;28;45536;-71
2021/06/26 02:42:14;;;;;;;;;7.25;7.00;;;;;19.17;100.00;101468.53;4919994;28;45305;-71
2021/06/26 02:48:01;;;;;;;;;10.75;9.25;;;;;19.19;100.00;101474.63;4919190;28;45787;-71
2021/06/26 02:50:26;;;;;;;;;8.75;8.25;;;;;19.19;100.00;101477.28;4919654;28;45404;-71
2021/06/26 02:52:52;;;;;;;;;9.25;8.00;;;;;19.14;100.00;101471.31;4919935;28;45419;-72
2021/06/26 02:55:17;;;;;;;;;10.75;9.00;;;;;19.14;100.00;101464.22;4919809;28;45354;-72
2021/06/26 02:57:42;;;;;;;;;9.25;8.50;;;;;19.23;100.00;101477.09;4919506;28;46310;-72
2021/06/26 03:00:09;;;;;;;;;10.75;10.00;;;;;19.24;100.00;101473.56;4919736;28;45544;-72
2021/06/26 03:02:35;;;;;;;;;11.00;10.00;;;;;19.20;100.00;101463.97;4919477;28;45393;-71
2021/06/26 03:05:00;;;;;;;;;12.00;11.50;;;;;19.24;100.00;101470.06;4919671;28;45362;-72
2021/06/26 03:07:26;;;;;;;;;12.75;10.50;;;;;19.25;100.00;101470.00;4919373;28;45419;-71
2021/06/26 03:09:51;;;;;;;;;10.75;10.00;;;;;19.18;100.00;101463.19;4919363;28;45411;-72
2021/06/26 03:12:16;;;;;;;;;10.25;10.25;;;;;19.23;100.00;101460.34;4919443;28;45346;-71
2021/06/26 03:18:04;;;;;;;;;14.00;12.25;;;;;19.23;100.00;101466.50;4918970;28;45421;-71
2021/06/26 03:20:29;;;;;;;;;13.00;13.00;;;;;19.18;100.00;101462.31;4919186;28;45404;-71
2021/06/26 03:22:55;;;;;;;;;13.25;12.00;;;;;19.22;100.00;101464.78;4919433;28;45802;-71
2021/06/26 03:25:20;;;;;;;;;13.25;10.50;;;;;19.17;100.00;101461.47;4919507;28;45355;-71
2021/06/26 03:27:46;;;;;;;;;15.25;14.00;;;;;19.23;100.00;101470.94;4919265;28;45460;-72
2021/06/26 03:30:12;;;;;;;;;15.25;12.25;;;;;19.21;100.00;101473.66;4919195;28;45351;-72
2021/06/26 03:32:37;;;;;;;;;11.75;10.75;;;;;19.23;100.00;101466.50;4919469;28;45269;-71
2021/06/26 03:35:04;;;;;;;;;11.25;10.50;;;;;19.21;100.00;101471.00;4919611;28;45329;-71
2021/06/26 03:37:29;;;;;;;;;9.75;9.00;;;;;19.24;100.00;101478.00;4919060;28;45368;-71
2021/06/26 03:39:55;;;;;;;;;11.50;10.00;;;;;19.26;100.00;101481.44;4919314;28;45329;-72
2021/06/26 03:42:20;;;;;;;;;12.50;10.00;;;;;19.21;100.00;101471.00;4918942;28;45432;-71
2021/06/26 03:48:07;;;;;;;;;10.00;10.00;;;;;19.08;100.00;101443.28;4921652;28;45379;-71
2021/06/26 03:50:34;;;;;;;;;9.50;9.25;;;;;19.11;100.00;101445.81;4922550;28;45277;-71
2021/06/26 03:53:00;;;;;;;;;11.00;9.75;;;;;19.16;100.00;101457.09;4922323;28;45340;-72
2021/06/26 03:55:25;;;;;;;;;9.50;9.50;;;;;19.21;100.00;101470.13;4922738;28;45478;-71
2021/06/26 03:57:50;;;;;;;;;11.75;9.50;;;;;19.23;100.00;101470.94;4922115;28;46134;-72
2021/06/26 04:00:16;;;;;;;;;10.00;9.50;;;;;19.17;100.00;101458.81;4922275;28;45363;-71
2021/06/26 04:02:42;;;;;;;;;11.00;10.75;;;;;19.16;100.00;101461.53;4920759;28;45631;-72
2021/06/26 04:05:08;;;;;;;;;11.00;9.75;;;;;19.22;100.00;101470.09;4922591;28;45445;-71
2021/06/26 04:07:33;;;;;;;;;11.50;9.00;;;;;19.20;100.00;101473.72;4921984;28;47179;-71
2021/06/26 04:09:58;;;;;;;;;8.25;7.50;;;;;19.25;100.00;101480.59;4922122;28;45451;-71
2021/06/26 04:12:24;;;;;;;;;13.00;11.75;;;;;19.17;100.00;101461.47;4921912;28;45394;-72
2021/06/26 04:18:11;;;;;;;;;11.25;9.25;;;;;19.15;100.00;101468.59;4921685;28;45381;-72
2021/06/26 04:20:36;;;;;;;;;10.75;8.75;;;;;19.17;100.00;101479.13;4921710;28;45349;-71
2021/06/26 04:23:02;;;;;;;;;7.75;7.75;;;;;19.12;100.00;101476.66;4921880;28;45447;-73
2021/06/26 04:25:28;;;;;;;;;7.50;6.50;;;;;19.09;100.00;101473.28;4922340;28;45434;-73
2021/06/26 04:27:54;;;;;;;;;10.00;6.00;;;;;19.06;100.00;101474.25;4921595;28;47044;-73
2021/06/26 04:30:19;;;;;;;;;8.00;8.00;;;;;19.15;100.00;101492.44;4921680;28;45388;-70
2021/06/26 04:32:45;;;;;;;;;5.00;5.00;;;;;19.14;100.00;101496.00;4921719;28;45432;-69
2021/06/26 04:35:14;;;;;;;;;6.00;5.75;;;;;19.08;100.00;101492.72;4920761;28;45413;-71
2021/06/26 04:37:40;;;;;;;;;6.00;5.75;;;;;19.10;100.00;101489.09;4921765;28;45421;-70
2021/06/26 04:40:06;;;;;;;;;5.25;5.25;;;;;19.07;100.00;101486.56;4921513;28;45454;-71
2021/06/26 04:42:31;;;;;;;;;4.25;4.25;;;;;19.01;100.00;101473.56;4921484;28;45443;-70
2021/06/26 04:48:20;;;;;;;;;5.75;5.00;;;;;19.08;100.00;101490.94;4921397;28;45677;-72
2021/06/26 04:50:47;;;;;;;;;5.75;5.75;;;;;19.02;100.00;101475.28;4920053;28;46060;-72
2021/06/26 04:53:12;;;;;;;;;5.00;4.00;;;;;18.99;100.00;101467.44;4921633;28;45506;-71
2021/06/26 04:55:38;;;;;;;;;6.50;5.50;;;;;18.94;100.00;101458.81;4921536;28;45396;-72
2021/06/26 04:58:03;;;;;;;;;4.75;4.75;;;;;19.12;100.00;101484.59;4920287;28;46367;-72
2021/06/26 05:00:29;;;;;;;;;5.00;5.00;;;;;19.11;100.00;101484.66;4935824;28;45394;-71
2021/06/26 05:02:54;;;;;;;;;4.50;4.50;;;;;19.11;100.00;101474.94;4920486;28;45516;-71
2021/06/26 05:05:20;;;;;;;;;4.50;4.00;;;;;19.02;100.00;101462.06;4921031;28;45393;-72
2021/06/26 05:07:45;;;;;;;;;4.00;4.00;;;;;19.00;100.00;101450.66;4920637;28;46398;-71
2021/06/26 05:10:11;;;;;;;;;7.00;4.50;;;;;19.18;100.00;101473.78;4921028;28;45373;-74
2021/06/26 05:12:41;;;;;;;;;4.25;4.00;;;;;19.23;100.00;101476.25;4919253;28;45416;-72
2021/06/26 05:18:28;;;;;;;;;4.50;4.00;;;;;19.30;100.00;101472.47;4920851;28;45348;-72
2021/06/26 05:20:56;;;;;;;;;5.00;5.00;;;;;19.27;100.00;101465.50;4920761;28;45331;-73
2021/06/26 05:23:21;;;;;;;;;5.75;5.75;;;;;19.32;100.00;101478.56;4921106;28;45397;-72
2021/06/26 05:25:47;;;;;;;;;5.25;4.50;;;;;19.31;100.00;101471.53;4921526;28;45229;-72
2021/06/26 05:28:12;;;;;;;;;4.00;4.00;;;;;19.34;100.00;101474.06;4920852;28;46517;-73
2021/06/26 05:30:39;;;;;;;;;6.50;5.00;;;;;19.34;100.00;101474.06;4921034;28;45409;-72
2021/06/26 05:33:05;;;;;;;;;4.75;4.75;;;;;19.32;100.00;101462.66;4921195;28;45429;-71
2021/06/26 05:35:30;;;;;;;;;4.50;4.00;;;;;19.39;100.00;101481.81;4921268;28;45406;-72
2021/06/26 05:37:56;;;;;;;;;4.50;4.50;;;;;19.41;100.00;101474.66;4920923;28;45553;-72
2021/06/26 05:40:21;;;;;;;;;5.00;5.00;;;;;19.58;100.00;101498.75;4920888;28;45309;-72
2021/06/26 05:42:47;;;;;;;;;5.75;5.75;;;;;19.44;100.00;101463.94;4920698;28;45508;-73
2021/06/26 05:48:34;;;;;;;;;5.50;5.50;;;;;19.69;100.00;101480.66;4920528;28;45854;-73
2021/06/26 05:50:59;;;;;;;;;6.75;5.25;;;;;19.78;100.00;101484.72;4920743;28;45262;-73
2021/06/26 05:53:25;;;;;;;;;6.25;5.50;;;;;19.80;100.00;101478.41;4920870;28;45485;-73
2021/06/26 05:55:58;;;;;;;;;6.75;6.75;;;;;20.03;100.00;101506.63;4920853;28;45423;-73
2021/06/26 05:58:33;;;;;;;;;7.50;7.00;;;;;20.06;100.00;101498.53;4920296;28;47133;-73
2021/06/26 06:00:59;;;;;;;;;7.00;6.50;;;;;19.91;100.00;101467.34;4920327;28;45606;-73
2021/06/26 06:03:24;;;;;;;;;7.00;7.00;;;;;20.06;100.00;101490.59;4919172;28;45400;-74
2021/06/26 06:05:51;;;;;;;;;10.00;7.50;;;;;20.03;100.00;101484.56;4920663;28;45429;-72
2021/06/26 06:08:18;;;;;;;;;10.00;9.25;;;;;20.13;100.00;101501.78;4920061;28;47146;-72
2021/06/26 06:10:43;;;;;;;;;11.50;10.75;;;;;20.07;100.00;101497.63;4920012;28;45273;-73
2021/06/26 06:13:13;;;;;;;;;9.50;8.50;;;;;19.96;100.00;101481.31;4920424;28;45450;-73
2021/06/26 06:19:00;;;;;;;;;11.50;10.00;;;;;20.08;100.00;101509.94;4919566;28;45895;-73
2021/06/26 06:21:25;;;;;;;;;9.75;9.75;;;;;19.91;100.00;101477.97;4920300;28;45289;-74
2021/06/26 06:23:51;;;;;;;;;9.00;8.75;;;;;20.00;100.00;101495.28;4920404;28;45452;-74
2021/06/26 06:26:16;;;;;;;;;10.25;8.00;;;;;19.93;100.00;101480.56;4920490;28;45290;-74
2021/06/26 06:28:41;;;;;;;;;7.75;7.50;;;;;19.98;100.00;101494.50;4919693;28;46509;-74
2021/06/26 06:31:07;;;;;;;;;9.25;8.50;;;;;20.01;100.00;101500.53;4920131;28;45566;-73
2021/06/26 06:33:33;;;;;;;;;9.00;8.75;;;;;20.11;100.00;101508.94;4920208;28;45396;-72
2021/06/26 06:35:58;;;;;;;;;10.50;9.00;;;;;20.10;100.00;101515.19;4920097;28;45440;-73
2021/06/26 06:38:24;;;;;;;;;9.75;9.75;;;;;20.08;100.00;101509.09;4919800;28;46569;-74
2021/06/26 06:40:49;;;;;;;;;13.50;10.00;;;;;19.97;100.00;101492.78;4919995;28;45363;-73
2021/06/26 06:43:14;;;;;;;;;9.50;9.25;;;;;20.07;100.00;101504.72;4920052;28;45554;-72
2021/06/26 06:49:01;;;;;;;;;9.75;8.25;;;;;20.04;100.00;101481.84;4919411;28;45803;-72
2021/06/26 06:51:27;;;;;;;;;8.00;8.00;;;;;20.22;100.00;101509.38;4919993;28;45490;-72
2021/06/26 06:53:52;;;;;;;;;8.25;8.00;;;;;20.18;100.00;101495.41;4919987;28;45336;-72
2021/06/26 06:56:18;;;;;;;;;7.50;7.25;;;;;20.22;100.00;101498.78;4919706;28;45338;-73
2021/06/26 06:58:43;;;;;;;;;5.75;5.75;;;;;20.34;100.00;101511.50;4919620;28;46326;-72
2021/06/26 07:01:08;;;;;;;;;8.25;8.25;;;;;20.06;100.00;101457.91;4919279;28;45586;-73
2021/06/26 07:03:34;;;;;;;;;8.25;6.25;;;;;20.31;100.00;101493.06;4918051;28;45856;-72
2021/06/26 07:05:59;;;;;;;;;8.00;7.25;;;;;20.45;100.00;101517.25;4919742;28;45325;-72
2021/06/26 07:08:24;;;;;;;;;8.75;7.00;;;;;20.46;100.00;101505.72;4919441;28;46470;-73
2021/06/26 07:10:50;;;;;;;;;7.00;6.75;;;;;20.50;100.00;101501.13;4919406;28;45455;-73
2021/06/26 07:13:15;;;;;;;;;6.25;6.00;;;;;20.62;100.00;101505.06;4919486;28;45925;-73
2021/06/26 07:19:03;;;;;;;;;6.00;6.00;;;;;20.74;100.00;101512.47;4919017;28;45438;-71
2021/06/26 07:21:28;;;;;;;;;7.00;6.00;;;;;20.70;100.00;101514.41;4917563;28;45475;-72
2021/06/26 07:23:54;;;;;;;;;10.00;8.00;;;;;20.73;100.00;101524.88;4919318;28;45407;-72
2021/06/26 07:26:19;;;;;;;;;8.25;8.00;;;;;20.44;100.00;101491.66;4919663;28;45476;-71
2021/06/26 07:28:45;;;;;;;;;7.00;7.00;;;;;20.57;100.00;101525.59;4918959;28;45455;-73
2021/06/26 07:31:11;;;;;;;;;7.50;6.50;;;;;20.43;100.00;101511.16;4918762;28;45499;-72
2021/06/26 07:33:37;;;;;;;;;6.75;6.75;;;;;20.39;100.00;101520.16;4918781;28;45437;-70
2021/06/26 07:36:02;;;;;;;;;7.00;7.00;;;;;20.39;100.00;101530.75;4918567;28;45425;-71
2021/06/26 07:38:28;;;;;;;;;7.25;5.00;;;;;20.30;100.00;101506.41;4918100;28;45593;-69
2021/06/26 07:40:59;;;;;;;;;7.25;7.00;;;;;20.26;100.00;101510.97;4918503;28;45318;-72
2021/06/26 07:43:25;;;;;;;;;7.00;6.50;;;;;20.27;100.00;101504.75;4918221;28;45414;-75
2021/06/26 07:49:12;;;;;;;;;6.00;6.00;;;;;20.14;100.00;101503.53;4918245;28;45781;-74
2021/06/26 07:51:38;;;;;;;;;8.25;6.50;;;;;20.14;100.00;101511.47;4918485;28;45326;-73
2021/06/26 07:54:03;;;;;;;;;8.00;7.25;;;;;20.14;100.00;101524.72;4918197;28;45383;-72
2021/06/26 07:56:30;;;;;;;;;8.00;7.00;;;;;20.03;100.00;101497.81;4918439;28;45657;-72
2021/06/26 07:58:56;;;;;;;;;9.75;8.25;;;;;20.08;100.00;101506.44;4917762;28;46523;-72
2021/06/26 08:01:22;;;;;;;;;8.00;7.75;;;;;20.09;100.00;101503.72;4918107;28;45319;-75
2021/06/26 08:03:47;;;;;;;;;7.00;6.00;;;;;20.19;100.00;101517.47;4918278;28;45359;-73
2021/06/26 08:06:12;;;;;;;;;7.50;7.50;;;;;20.10;100.00;101496.63;4918514;28;45290;-72
2021/06/26 08:08:38;;;;;;;;;7.50;6.50;;;;;20.28;100.00;101522.38;4917528;28;46197;-70
2021/06/26 08:11:03;;;;;;;;;6.50;6.00;;;;;20.28;100.00;101505.59;4917842;28;45354;-71
2021/06/26 08:13:30;;;;;;;;;8.25;7.00;;;;;20.40;100.00;101515.72;4918686;28;45292;-72
2021/06/26 08:19:17;;;;;;;;;7.50;7.50;;;;;20.40;100.00;101516.59;4918178;28;45699;-74
2021/06/26 08:21:45;;;;;;;;;8.00;7.75;;;;;20.29;100.00;101499.38;4918806;28;45244;-74
2021/06/26 08:24:10;;;;;;;;;6.25;6.00;;;;;20.00;100.00;101453.75;4918516;28;45433;-72
2021/06/26 08:26:35;;;;;;;;;8.50;6.50;;;;;20.36;100.00;101496.38;4918985;28;45409;-73
2021/06/26 08:29:01;;;;;;;;;5.00;5.00;;;;;20.43;100.00;101495.25;4918291;28;45394;-72
2021/06/26 08:31:26;;;;;;;;;6.50;6.50;;;;;20.56;100.00;101495.56;4918166;28;45357;-71
2021/06/26 08:33:52;;;;;;;;;8.25;7.75;;;;;20.63;100.00;101509.44;4919735;28;45268;-72
2021/06/26 08:36:17;;;;;;;;;6.00;5.00;;;;;20.57;100.00;101496.41;4922129;28;45217;-72
2021/06/26 08:38:43;;;;;;;;;6.00;6.00;;;;;20.61;100.00;101496.25;4920216;28;45377;-72
2021/06/26 08:41:08;;;;;;;;;8.00;6.25;;;;;20.70;100.00;101503.78;4920074;28;45354;-73
2021/06/26 08:43:34;;;;;;;;;6.75;6.00;;;;;20.70;100.00;101502.91;4921902;28;45347;-71
2021/06/26 08:49:21;;;;;;;;;6.75;5.50;;;;;20.89;100.00;101518.91;4921071;28;45779;-73
2021/06/26 08:51:47;;;;;;;;;5.75;5.25;;;;;20.83;100.00;101504.13;4921648;28;45345;-77
2021/06/26 08:54:17;;;;;;;;;6.00;5.50;;;;;20.85;100.00;101519.97;4920168;28;45309;-72
2021/06/26 08:56:44;;;;;;;;;5.75;5.50;;;;;20.76;100.00;101516.78;4921766;28;45328;-73
2021/06/26 08:59:10;;;;;;;;;5.50;5.50;;;;;20.60;100.00;101506.91;4921036;28;46569;-75
2021/06/26 09:01:40;;;;;;;;;7.00;6.00;;;;;20.54;100.00;101505.38;4919719;28;45450;-74
2021/06/26 09:04:08;;;;;;;;;7.00;6.00;;;;;20.58;100.00;101499.00;4921223;28;45368;-71
2021/06/26 09:06:55;;;;;;;;;6.00;6.00;;;;;20.78;100.00;101514.03;4921508;28;45254;-73
2021/06/26 09:09:29;;;;;;;;;5.00;5.00;;;;;20.92;100.00;101514.31;4921375;28;46456;-72
2021/06/26 09:12:00;;;;;;;;;6.00;5.25;;;;;21.09;100.00;101510.91;4921425;28;45498;-69
2021/06/26 09:14:26;;;;;;;;;5.25;5.00;;;;;21.00;100.00;101479.44;4921742;28;45436;-73
2021/06/26 09:16:52;;;;;;;;;5.75;5.75;;;;;21.25;100.00;101511.06;4922234;28;45345;-74
2021/06/26 09:19:18;;;;;;;;;7.00;7.00;;;;;21.19;100.00;101484.75;4921297;28;45425;-73
2021/06/26 09:21:55;;;;;;;;;1.75;1.75;;;;;21.39;100.00;101492.69;4921729;28;45293;-73
2021/06/26 09:24:20;;;;;;;;;8.00;7.00;;;;;21.41;100.00;101469.56;4921558;28;45217;-73
2021/06/26 09:26:59;;;;;;;;;8.00;7.25;;;;;21.69;100.00;101499.19;4921783;28;45470;-74
2021/06/26 09:29:26;;;;;;;;;5.00;5.00;;;;;21.85;100.00;101496.66;4921159;28;46564;-75
2021/06/26 09:31:57;;;;;;;;;6.25;6.25;;;;;21.95;100.00;101483.75;4921236;28;45707;-72
2021/06/26 09:34:36;;;;;;;;;6.00;5.50;;;;;22.08;100.00;101470.75;4921480;28;45244;-74
2021/06/26 09:37:03;;;;;;;;;6.25;6.25;;;;;22.38;100.00;101494.91;4921487;28;45434;-73
2021/06/26 09:39:39;;;;;;;;;6.50;6.50;;;;;22.35;100.00;101472.00;4921400;28;45667;-74
2021/06/26 09:42:16;;;;;;;;;8.25;6.75;;;;;22.46;100.00;101461.66;4920041;28;45479;-74
2021/06/26 09:44:56;;;;;;;;;7.25;7.00;;;;;22.60;100.00;101484.88;4919385;28;45465;-73
2021/06/26 09:47:39;;;;;;;;;6.25;6.25;;;;;22.83;100.00;101497.00;4921703;28;45320;-72
2021/06/26 09:50:16;;;;;;;;;6.00;5.25;;;;;22.95;100.00;101498.16;4921135;28;46232;-74
2021/06/26 09:52:52;;;;;;;;;6.00;6.00;;;;;22.88;100.00;101487.00;4921030;28;45376;-74
2021/06/26 09:55:28;;;;;;;;;7.50;6.00;;;;;22.96;100.00;101507.88;4921092;28;45293;-70
2021/06/26 09:57:56;;;;;;;;;6.50;6.50;;;;;22.82;100.00;101501.47;4920983;28;45501;-70
2021/06/26 10:00:23;;;;;;;;;5.75;5.00;;;;;22.73;100.00;101519.72;4920555;28;45368;-73
2021/06/26 10:02:50;;;;;;;;;7.00;5.25;;;;;22.46;100.00;101503.38;4920462;28;45374;-73
2021/06/26 10:05:16;;;;;;;;;8.00;7.75;;;;;22.27;100.00;101499.00;4920646;28;45484;-73
2021/06/26 10:07:44;;;;;;;;;4.25;4.00;;;;;22.26;100.00;101529.22;4920827;28;45353;-73
2021/06/26 10:10:12;;;;;;;;;6.00;4.50;;;;;22.13;100.00;101528.09;4919948;28;46130;-73
2021/06/26 10:12:38;;;;;;;;;7.75;6.75;;;;;21.96;100.00;101520.06;4919994;28;45463;-72
2021/06/26 10:15:06;;;;;;;;;4.50;4.50;;;;;21.81;100.00;101496.88;4920537;28;45365;-72
2021/06/26 10:17:35;;;;;;;;;4.75;4.50;;;;;21.81;100.00;101495.09;4920396;28;45360;-73
2021/06/26 10:20:02;;;;;;;;;3.75;3.75;;;;;21.78;100.00;101495.25;4919755;28;46493;-72
2021/06/26 10:22:28;;;;;;;;;5.75;5.25;;;;;21.85;100.00;101509.94;4920047;28;45528;-73
2021/06/26 10:24:54;;;;;;;;;5.75;4.75;;;;;21.99;100.00;101522.56;4920306;28;45328;-74
2021/06/26 10:27:22;;;;;;;;;5.50;4.75;;;;;22.02;100.00;101514.44;4920391;28;45377;-74
2021/06/26 10:29:48;;;;;;;;;6.00;5.00;;;;;21.97;100.00;101479.25;4919958;28;45625;-73
2021/06/26 10:32:16;;;;;;;;;5.00;4.75;;;;;22.35;100.00;101508.38;4919442;28;45340;-74
2021/06/26 10:34:46;;;;;;;;;5.00;4.00;;;;;22.47;100.00;101511.28;4918582;28;45357;-73
2021/06/26 10:37:24;;;;;;;;;4.25;4.25;;;;;22.70;100.00;101499.44;4920401;28;45490;-75
2021/06/26 10:40:06;;;;;;;;;6.50;5.25;;;;;23.03;100.00;101507.47;4919795;28;45596;-74
2021/06/26 10:42:34;;;;;;;;;5.50;4.75;;;;;23.30;100.00;101505.09;4919889;28;45671;-76
2021/06/26 10:45:00;;;;;;;;;5.25;5.25;;;;;23.67;100.00;101505.75;4919765;28;45352;-74
2021/06/26 10:47:42;;;;;;;;;5.75;4.50;;;;;23.97;100.00;101508.44;4920044;28;45488;-74
2021/06/26 10:50:11;;;;;;;;;6.00;6.00;;;;;24.25;100.00;101492.56;4919807;28;46311;-74
2021/06/26 10:52:51;;;;;;;;;5.50;5.00;;;;;24.78;100.00;101491.13;4919616;28;45331;-73
2021/06/26 10:55:27;;;;;;;;;4.25;3.50;;;;;25.27;100.00;101504.97;4918323;28;45543;-71
2021/06/26 10:57:53;;;;;;;;;5.00;4.00;;;;;25.37;100.00;101488.38;4919103;28;45270;-71
2021/06/26 11:00:37;;;;;;;;;6.00;5.75;;;;;25.59;100.00;101494.91;4919816;28;45681;-74
2021/06/26 11:03:03;;;;;;;;;5.25;4.50;;;;;25.59;100.00;101489.56;4919026;28;45517;-73
2021/06/26 11:05:31;;;;;;;;;5.00;4.00;;;;;25.73;100.00;101490.50;4919234;28;45295;-74
2021/06/26 11:07:57;;;;;;;;;6.00;4.50;;;;;25.57;100.00;101470.09;4918258;28;45281;-74
2021/06/26 11:10:23;;;;;;;;;5.00;4.50;;;;;25.56;100.00;101489.72;4919001;28;47218;-74
2021/06/26 11:12:49;;;;;;;;;6.00;5.00;;;;;25.41;100.00;101473.84;4919442;28;45472;-77
2021/06/26 11:15:31;;;;;;;;;5.25;5.25;;;;;25.38;100.00;101479.41;4919341;28;45459;-73
2021/06/26 11:17:57;;;;;;;;;4.00;4.00;;;;;25.40;100.00;101482.81;4919354;28;45355;-72
2021/06/26 11:20:23;;;;;;;;;6.00;6.00;;;;;25.34;100.00;101468.00;4918920;28;46628;-70
2021/06/26 11:23:00;;;;;;;;;4.75;4.25;;;;;25.33;100.00;101468.97;4919371;28;45369;-72
2021/06/26 11:25:30;;;;;;;;;5.75;5.00;;;;;25.33;100.00;101480.53;4919524;28;45319;-71
2021/06/26 11:28:10;;;;;;;;;5.00;5.00;;;;;25.29;100.00;101487.03;4919960;28;45315;-74
2021/06/26 11:30:36;;;;;;;;;5.50;4.75;;;;;25.06;100.00;101452.03;4919561;28;46280;-73
2021/06/26 11:33:03;;;;;;;;;6.50;6.50;;;;;25.15;100.00;101467.50;4919335;28;45707;-73
2021/06/26 11:35:39;;;;;;;;;4.25;4.25;;;;;25.09;100.00;101468.72;4919361;28;45240;-71
2021/06/26 11:38:10;;;;;;;;;7.25;6.00;;;;;25.08;100.00;101474.16;4919669;28;45268;-72
2021/06/26 11:40:36;;;;;;;;;5.75;5.75;;;;;25.07;100.00;101465.31;4919483;28;46539;-71
2021/06/26 11:43:05;;;;;;;;;5.00;5.00;;;;;24.95;100.00;101458.03;4919321;28;45304;-72
2021/06/26 11:45:34;;;;;;;;;7.75;6.50;;;;;25.04;100.00;101471.69;4919539;28;45296;-72
2021/06/26 11:48:11;;;;;;;;;9.00;8.75;;;;;25.04;100.00;101478.84;4918052;28;45406;-71
2021/06/26 11:50:39;;;;;;;;;8.75;8.00;;;;;24.98;100.00;101476.53;4919033;28;45649;-71
2021/06/26 11:53:08;;;;;;;;;8.00;8.00;;;;;24.84;100.00;101463.19;4918937;28;45282;-73
2021/06/26 11:55:55;;;;;;;;;7.00;7.00;;;;;24.85;100.00;101476.44;4919092;28;45399;-74
2021/06/26 11:58:22;;;;;;;;;8.25;8.25;;;;;24.79;100.00;101474.16;4919570;28;45482;-73
2021/06/26 12:01:01;;;;;;;;;9.25;9.25;;;;;24.72;100.00;101470.16;4917616;28;47638;-78
2021/06/26 12:03:29;;;;;;;;;9.00;9.00;;;;;24.60;100.00;101454.88;4919255;28;45284;-75
2021/06/26 12:06:03;;;;;;;;;8.50;8.50;;;;;24.63;100.00;101471.56;4919164;28;45361;-75
2021/06/26 12:08:30;;;;;;;;;8.25;7.50;;;;;24.64;100.00;101480.44;4921227;28;45352;-73
2021/06/26 12:10:56;;;;;;;;;8.00;8.00;;;;;24.55;100.00;101465.00;4922500;28;46545;-75
2021/06/26 12:13:22;;;;;;;;;10.00;10.00;;;;;24.50;100.00;101459.06;4922465;28;45360;-73
2021/06/26 12:15:48;;;;;;;;;9.00;9.00;;;;;24.60;100.00;101476.25;4922537;28;45500;-73